createdAt,value
2023-02-12T00:00:04.224Z,103508.63
2023-02-12T00:02:31.057Z,103507.63
2023-02-12T00:04:57.924Z,103503.25
2023-02-12T00:07:24.750Z,103499.84
2023-02-12T00:09:51.559Z,103499.13
2023-02-12T00:12:18.349Z,103509.47
2023-02-12T00:14:45.284Z,103506.88
2023-02-12T00:17:11.847Z,103518.97
2023-02-12T00:19:38.584Z,103509.47
2023-02-12T00:22:05.441Z,103521.63
2023-02-12T00:24:32.426Z,103512.22
2023-02-12T00:26:59.320Z,103509.63
2023-02-12T00:29:26.021Z,103515.66
2023-02-12T00:31:52.839Z,103518.22
2023-02-12T00:34:19.724Z,103513.06
2023-02-12T00:36:46.497Z,103519.97
2023-02-12T00:39:13.188Z,103518.41
2023-02-12T00:41:40.114Z,103522.81
2023-02-12T00:44:06.786Z,103518.56
2023-02-12T00:46:33.570Z,103516.81
2023-02-12T00:49:00.252Z,103515.91
2023-02-12T00:51:26.897Z,103517.72
2023-02-12T00:53:53.730Z,103509.97
2023-02-12T00:56:20.378Z,103515.97
2023-02-12T00:58:47.098Z,103514.22
2023-02-12T01:01:13.779Z,103521.25
2023-02-12T01:03:40.700Z,103512.53
2023-02-12T01:06:07.845Z,103517.72
2023-02-12T01:08:34.531Z,103517.81
2023-02-12T01:11:03.216Z,103523.84
2023-02-12T01:13:31.710Z,103523.84
2023-02-12T01:16:08.997Z,103524.69
2023-02-12T01:18:37.354Z,103529.84
2023-02-12T01:21:14.788Z,103529.75
2023-02-12T01:23:42.666Z,103529.75
2023-02-12T01:26:13.140Z,103524.69
2023-02-12T01:28:42.103Z,103532.50
2023-02-12T01:31:13.980Z,103528.31
2023-02-12T01:33:41.267Z,103525.75
2023-02-12T01:36:09.260Z,103525.75
2023-02-12T01:38:36.207Z,103532.69
2023-02-12T01:41:15.526Z,103526.69
2023-02-12T01:43:42.666Z,103532.69
2023-02-12T01:46:12.265Z,103530.91
2023-02-12T01:48:42.778Z,103529.38
2023-02-12T01:51:14.852Z,103521.66
2023-02-12T01:53:47.137Z,103524.34
2023-02-12T01:56:14.470Z,103529.53
2023-02-12T01:58:43.439Z,103531.19
2023-02-12T02:01:17.000Z,103526.00
2023-02-12T02:03:46.934Z,103531.19
2023-02-12T02:06:17.590Z,103528.59
2023-02-12T02:08:44.427Z,103519.16
2023-02-12T02:11:29.847Z,103519.25
2023-02-12T02:14:15.417Z,103516.75
2023-02-12T02:16:47.375Z,103516.84
2023-02-12T02:19:28.528Z,103509.94
2023-02-12T02:22:19.841Z,103510.09
2023-02-12T02:25:24.687Z,103507.59
2023-02-12T02:28:09.614Z,103510.09
2023-02-12T02:30:58.181Z,103508.41
2023-02-12T02:33:42.316Z,103506.66
2023-02-12T02:36:14.237Z,103505.06
2023-02-12T02:38:46.927Z,103502.47
2023-02-12T02:41:30.686Z,103504.16
2023-02-12T02:43:58.472Z,103495.66
2023-02-12T02:46:31.285Z,103500.00
2023-02-12T02:49:02.751Z,103495.66
2023-02-12T02:51:33.397Z,103494.81
2023-02-12T02:54:21.974Z,103484.63
2023-02-12T02:56:51.597Z,103486.56
2023-02-12T02:59:24.706Z,103483.41
2023-02-12T03:02:24.649Z,103484.38
2023-02-12T03:05:33.673Z,103482.78
2023-02-12T03:08:15.108Z,103481.88
2023-02-12T03:10:46.546Z,103483.63
2023-02-12T03:13:19.596Z,103482.88
2023-02-12T03:16:11.952Z,103490.63
2023-02-12T03:18:46.967Z,103491.38
2023-02-12T03:21:18.519Z,103492.13
2023-02-12T03:23:58.414Z,103486.13
2023-02-12T03:26:35.271Z,103484.47
2023-02-12T03:29:01.768Z,103484.72
2023-02-12T03:31:44.105Z,103483.28
2023-02-12T03:34:42.977Z,103485.03
2023-02-12T03:37:33.896Z,103488.47
2023-02-12T03:40:23.704Z,103490.22
2023-02-12T03:43:06.475Z,103484.19
2023-02-12T03:45:52.404Z,103477.28
2023-02-12T03:48:34.889Z,103486.13
2023-02-12T03:51:10.705Z,103485.38
2023-02-12T03:53:37.653Z,103483.53
2023-02-12T03:56:33.366Z,103491.22
2023-02-12T03:59:00.115Z,103485.22
2023-02-12T04:01:27.708Z,103498.16
2023-02-12T04:03:54.620Z,103499.81
2023-02-12T04:06:25.690Z,103491.16
2023-02-12T04:08:55.059Z,103496.31
2023-02-12T04:11:41.771Z,103502.28
2023-02-12T04:14:15.270Z,103502.38
2023-02-12T04:16:51.713Z,103509.41
2023-02-12T04:19:55.591Z,103513.72
2023-02-12T04:22:40.582Z,103515.47
2023-02-12T04:25:29.647Z,103516.31
2023-02-12T04:28:07.725Z,103523.22
2023-02-12T04:30:41.932Z,103516.50
2023-02-12T04:33:13.523Z,103531.09
2023-02-12T04:36:02.282Z,103526.00
2023-02-12T04:38:36.149Z,103532.00
2023-02-12T04:41:06.918Z,103533.00
2023-02-12T04:43:37.105Z,103537.50
2023-02-12T04:46:05.849Z,103535.00
2023-02-12T04:48:34.657Z,103534.16
2023-02-12T04:51:01.454Z,103543.75
2023-02-12T04:53:28.159Z,103542.91
2023-02-12T04:55:55.841Z,103541.16
2023-02-12T04:58:22.775Z,103544.59
2023-02-12T05:00:49.352Z,103547.19
2023-02-12T05:03:15.919Z,103542.81
2023-02-12T05:05:42.651Z,103534.41
2023-02-12T05:08:09.252Z,103531.06
2023-02-12T05:10:36.084Z,103537.13
2023-02-12T05:13:02.665Z,103540.56
2023-02-12T05:15:29.469Z,103542.25
2023-02-12T05:17:56.032Z,103540.47
2023-02-12T05:20:22.738Z,103546.56
2023-02-12T05:22:53.184Z,103545.66
2023-02-12T05:25:20.168Z,103543.16
2023-02-12T05:27:46.885Z,103541.50
2023-02-12T05:30:14.164Z,103538.13
2023-02-12T05:32:40.797Z,103545.97
2023-02-12T05:35:07.939Z,103545.13
2023-02-12T05:37:36.320Z,103548.66
2023-02-12T05:40:07.190Z,103550.31
2023-02-12T05:42:33.953Z,103556.41
2023-02-12T05:45:00.615Z,103558.16
2023-02-12T05:47:27.419Z,103552.28
2023-02-12T05:49:54.113Z,103545.72
2023-02-12T05:52:20.821Z,103553.72
2023-02-12T05:54:50.328Z,103552.97
2023-02-12T05:57:16.929Z,103552.22
2023-02-12T05:59:43.580Z,103542.69
2023-02-12T06:02:10.208Z,103548.59
2023-02-12T06:04:36.767Z,103552.78
2023-02-12T06:07:03.494Z,103548.38
2023-02-12T06:09:30.176Z,103549.19
2023-02-12T06:11:56.812Z,103557.69
2023-02-12T06:14:23.475Z,103559.53
2023-02-12T06:16:51.768Z,103557.94
2023-02-12T06:19:19.992Z,103558.94
2023-02-12T06:21:47.044Z,103559.88
2023-02-12T06:24:15.967Z,103565.03
2023-02-12T06:26:43.055Z,103558.88
2023-02-12T06:29:10.019Z,103563.91
2023-02-12T06:31:37.388Z,103555.31
2023-02-12T06:34:06.918Z,103558.78
2023-02-12T06:36:35.969Z,103557.94
2023-02-12T06:39:04.240Z,103560.38
2023-02-12T06:41:30.980Z,103561.22
2023-02-12T06:43:57.906Z,103562.88
2023-02-12T06:46:25.181Z,103562.88
2023-02-12T06:48:56.432Z,103562.13
2023-02-12T06:51:23.931Z,103566.38
2023-02-12T06:53:52.395Z,103571.41
2023-02-12T06:56:20.123Z,103573.28
2023-02-12T06:58:51.922Z,103587.22
2023-02-12T07:01:21.622Z,103571.66
2023-02-12T07:03:57.348Z,103581.97
2023-02-12T07:06:25.025Z,103581.97
2023-02-12T07:08:51.895Z,103589.75
2023-02-12T07:11:18.983Z,103583.72
2023-02-12T07:13:46.004Z,103581.06
2023-02-12T07:16:17.029Z,103586.22
2023-02-12T07:18:45.594Z,103590.50
2023-02-12T07:21:14.231Z,103591.16
2023-02-12T07:23:41.509Z,103592.84
2023-02-12T07:26:13.023Z,103593.66
2023-02-12T07:28:40.751Z,103597.91
2023-02-12T07:31:09.020Z,103611.59
2023-02-12T07:33:37.041Z,103597.81
2023-02-12T07:36:05.107Z,103615.00
2023-02-12T07:38:32.228Z,103615.69
2023-02-12T07:41:21.971Z,103618.19
2023-02-12T07:43:53.337Z,103623.19
2023-02-12T07:46:23.894Z,103623.97
2023-02-12T07:48:51.647Z,103630.81
2023-02-12T07:51:19.531Z,103634.22
2023-02-12T07:53:46.385Z,103631.72
2023-02-12T07:56:18.466Z,103638.56
2023-02-12T07:58:46.664Z,103640.16
2023-02-12T08:01:19.069Z,103638.41
2023-02-12T08:03:47.215Z,103642.59
2023-02-12T08:06:23.206Z,103639.06
2023-02-12T08:08:59.110Z,103645.91
2023-02-12T08:11:28.014Z,103650.84
2023-02-12T08:13:55.354Z,103646.44
2023-02-12T08:16:24.294Z,103646.28
2023-02-12T08:18:51.458Z,103651.38
2023-02-12T08:21:21.387Z,103652.03
2023-02-12T08:23:50.706Z,103652.03
2023-02-12T08:26:28.903Z,103657.19
2023-02-12T08:29:02.549Z,103657.13
2023-02-12T08:31:32.126Z,103666.41
2023-02-12T08:34:00.058Z,103670.59
2023-02-12T08:36:29.984Z,103668.88
2023-02-12T08:39:00.618Z,103670.38
2023-02-12T08:41:29.556Z,103673.78
2023-02-12T08:43:58.729Z,103677.88
2023-02-12T08:46:30.835Z,103681.06
2023-02-12T08:49:01.018Z,103682.81
2023-02-12T08:51:32.901Z,103680.00
2023-02-12T08:54:02.114Z,103673.91
2023-02-12T08:56:31.346Z,103678.75
2023-02-12T08:58:58.912Z,103683.69
2023-02-12T09:01:27.896Z,103688.84
2023-02-12T09:03:54.658Z,103692.19
2023-02-12T09:06:23.553Z,103695.47
2023-02-12T09:08:51.026Z,103684.03
2023-02-12T09:11:24.667Z,103695.81
2023-02-12T09:13:51.644Z,103694.72
2023-02-12T09:16:18.525Z,103696.38
2023-02-12T09:18:45.452Z,103700.75
2023-02-12T09:21:14.779Z,103700.56
2023-02-12T09:23:41.569Z,103705.47
2023-02-12T09:26:10.571Z,103701.25
2023-02-12T09:28:38.994Z,103704.56
2023-02-12T09:31:15.291Z,103705.97
2023-02-12T09:33:43.078Z,103704.91
2023-02-12T09:36:15.076Z,103702.88
2023-02-12T09:38:42.972Z,103694.91
2023-02-12T09:41:17.023Z,103695.53
2023-02-12T09:44:11.560Z,103694.38
2023-02-12T09:46:51.920Z,103697.78
2023-02-12T09:49:40.816Z,103704.50
2023-02-12T09:52:17.569Z,103709.47
2023-02-12T09:54:44.701Z,103705.13
2023-02-12T09:57:31.523Z,103706.72
2023-02-12T10:00:16.218Z,103713.50
2023-02-12T10:02:42.925Z,103713.34
2023-02-12T10:05:19.631Z,103709.16
2023-02-12T10:08:07.298Z,103717.56
2023-02-12T10:10:53.565Z,103712.13
2023-02-12T10:13:38.475Z,103712.06
2023-02-12T10:16:27.823Z,103717.00
2023-02-12T10:19:06.758Z,103715.16
2023-02-12T10:21:45.671Z,103717.53
2023-02-12T10:24:41.506Z,103712.94
2023-02-12T10:27:15.665Z,103706.47
2023-02-12T10:29:45.076Z,103713.16
2023-02-12T10:32:33.205Z,103710.56
2023-02-12T10:34:59.980Z,103714.56
2023-02-12T10:37:37.791Z,103715.16
2023-02-12T10:40:16.486Z,103712.28
2023-02-12T10:42:45.643Z,103710.28
2023-02-12T10:45:18.062Z,103716.09
2023-02-12T10:47:47.288Z,103714.34
2023-02-12T10:50:17.647Z,103715.25
2023-02-12T10:52:55.138Z,103704.81
2023-02-12T10:55:29.601Z,103707.03
2023-02-12T10:57:57.733Z,103705.91
2023-02-12T11:00:33.166Z,103706.66
2023-02-12T11:03:21.416Z,103703.34
2023-02-12T11:05:48.543Z,103710.19
2023-02-12T11:08:35.354Z,103714.28
2023-02-12T11:11:06.105Z,103707.97
2023-02-12T11:13:32.847Z,103712.06
2023-02-12T11:16:01.301Z,103715.25
2023-02-12T11:18:33.033Z,103702.94
2023-02-12T11:21:02.861Z,103706.28
2023-02-12T11:23:41.705Z,103700.69
2023-02-12T11:26:20.876Z,103695.34
2023-02-12T11:28:58.729Z,103688.22
2023-02-12T11:31:37.026Z,103688.09
2023-02-12T11:34:10.514Z,103688.66
2023-02-12T11:36:49.103Z,103683.09
2023-02-12T11:39:26.781Z,103684.56
2023-02-12T11:42:22.496Z,103677.34
2023-02-12T11:44:52.723Z,103681.22
2023-02-12T11:47:26.833Z,103680.09
2023-02-12T11:50:27.566Z,103672.84
2023-02-12T11:52:59.626Z,103676.09
2023-02-12T11:55:33.653Z,103671.84
2023-02-12T11:58:13.933Z,103672.47
2023-02-12T12:00:43.704Z,103668.75
2023-02-12T12:03:28.299Z,103664.19
2023-02-12T12:06:01.639Z,103669.78
2023-02-12T12:08:36.900Z,103666.47
2023-02-12T12:11:29.129Z,103661.44
2023-02-12T12:14:09.910Z,103659.75
2023-02-12T12:17:06.781Z,103652.91
2023-02-12T12:19:59.644Z,103655.41
2023-02-12T12:22:47.481Z,103653.53
2023-02-12T12:25:28.118Z,103639.84
2023-02-12T12:28:19.475Z,103643.38
2023-02-12T12:31:07.549Z,103639.66
2023-02-12T12:33:51.277Z,103627.00
2023-02-12T12:36:56.558Z,103628.47
2023-02-12T12:39:29.048Z,103623.91
2023-02-12T12:42:20.693Z,103618.81
2023-02-12T12:45:24.276Z,103612.78
2023-02-12T12:47:53.596Z,103607.50
2023-02-12T12:50:32.217Z,103613.72
2023-02-12T12:53:02.584Z,103609.47
2023-02-12T12:55:44.917Z,103607.72
2023-02-12T12:58:17.597Z,103605.91
2023-02-12T13:00:50.182Z,103604.88
2023-02-12T13:03:50.311Z,103598.78
2023-02-12T13:06:45.117Z,103604.59
2023-02-12T13:09:11.936Z,103597.41
2023-02-12T13:11:53.670Z,103599.25
2023-02-12T13:14:27.740Z,103601.84
2023-02-12T13:17:19.470Z,103594.91
2023-02-12T13:19:49.412Z,103599.19
2023-02-12T13:22:26.834Z,103594.72
2023-02-12T13:25:01.538Z,103590.56
2023-02-12T13:27:35.599Z,103593.16
2023-02-12T13:30:27.851Z,103585.25
2023-02-12T13:33:10.615Z,103588.78
2023-02-12T13:35:43.389Z,103591.16
2023-02-12T13:38:21.143Z,103587.66
2023-02-12T13:40:49.808Z,103588.78
2023-02-12T13:43:40.933Z,103588.88
2023-02-12T13:46:21.052Z,103586.56
2023-02-12T13:48:57.495Z,103597.91
2023-02-12T13:51:33.122Z,103597.16
2023-02-12T13:54:28.159Z,103585.22
2023-02-12T13:57:00.385Z,103586.13
2023-02-12T13:59:35.634Z,103590.50
2023-02-12T14:02:26.195Z,103588.00
2023-02-12T14:04:52.781Z,103587.34
2023-02-12T14:07:21.559Z,103587.34
2023-02-12T14:09:51.351Z,103590.91
2023-02-12T14:12:43.105Z,103593.69
2023-02-12T14:15:22.227Z,103589.31
2023-02-12T14:18:08.091Z,103584.25
2023-02-12T14:20:37.433Z,103579.84
2023-02-12T14:23:24.347Z,103585.88
2023-02-12T14:26:03.584Z,103583.09
2023-02-12T14:28:42.496Z,103586.44
2023-02-12T14:31:21.907Z,103577.81
2023-02-12T14:34:08.910Z,103583.00
2023-02-12T14:36:39.166Z,103578.84
2023-02-12T14:39:29.968Z,103573.38
2023-02-12T14:42:16.692Z,103574.44
2023-02-12T14:44:55.879Z,103577.78
2023-02-12T14:47:31.691Z,103574.22
2023-02-12T14:50:38.982Z,103576.09
2023-02-12T14:53:21.321Z,103577.84
2023-02-12T14:55:49.629Z,103571.94
2023-02-12T14:58:24.613Z,103577.34
2023-02-12T15:00:56.320Z,103567.88
2023-02-12T15:03:28.232Z,103571.31
2023-02-12T15:05:55.427Z,103573.25
2023-02-12T15:08:47.271Z,103574.47
2023-02-12T15:11:21.483Z,103569.47
2023-02-12T15:14:03.508Z,103559.19
2023-02-12T15:17:00.254Z,103558.25
2023-02-12T15:19:32.813Z,103555.75
2023-02-12T15:21:59.845Z,103563.56
2023-02-12T15:24:28.222Z,103553.06
2023-02-12T15:26:58.089Z,103562.53
2023-02-12T15:29:29.906Z,103558.25
2023-02-12T15:32:06.531Z,103563.38
2023-02-12T15:34:38.022Z,103556.31
2023-02-12T15:37:07.622Z,103558.06
2023-02-12T15:39:43.650Z,103559.81
2023-02-12T15:42:29.037Z,103558.06
2023-02-12T15:45:08.100Z,103553.78
2023-02-12T15:47:34.784Z,103556.38
2023-02-12T15:50:01.499Z,103553.78
2023-02-12T15:52:35.718Z,103547.88
2023-02-12T15:55:12.507Z,103548.81
2023-02-12T15:57:39.250Z,103545.50
2023-02-12T16:00:10.214Z,103553.28
2023-02-12T16:02:37.103Z,103558.47
2023-02-12T16:05:05.890Z,103556.78
2023-02-12T16:07:36.992Z,103558.53
2023-02-12T16:10:05.320Z,103561.25
2023-02-12T16:12:37.736Z,103550.13
2023-02-12T16:15:05.497Z,103547.59
2023-02-12T16:17:37.078Z,103546.88
2023-02-12T16:20:25.651Z,103547.81
2023-02-12T16:22:53.189Z,103543.72
2023-02-12T16:25:24.596Z,103547.38
2023-02-12T16:27:59.626Z,103541.34
2023-02-12T16:30:29.520Z,103542.19
2023-02-12T16:32:56.952Z,103544.78
2023-02-12T16:35:29.796Z,103548.41
2023-02-12T16:38:01.226Z,103545.00
2023-02-12T16:40:34.029Z,103551.97
2023-02-12T16:43:04.622Z,103547.59
2023-02-12T16:45:37.115Z,103547.72
2023-02-12T16:48:17.062Z,103543.47
2023-02-12T16:50:48.037Z,103543.53
2023-02-12T16:53:31.870Z,103543.53
2023-02-12T16:55:59.752Z,103547.16
2023-02-12T16:58:26.711Z,103550.69
2023-02-12T17:00:57.343Z,103557.63
2023-02-12T17:03:25.191Z,103562.81
2023-02-12T17:05:52.601Z,103562.81
2023-02-12T17:08:23.552Z,103562.81
2023-02-12T17:10:50.609Z,103575.06
2023-02-12T17:13:17.910Z,103569.22
2023-02-12T17:15:55.480Z,103574.50
2023-02-12T17:18:24.636Z,103574.50
2023-02-12T17:21:05.006Z,103579.69
2023-02-12T17:23:33.300Z,103580.59
2023-02-12T17:26:00.138Z,103580.59
2023-02-12T17:28:27.055Z,103588.38
2023-02-12T17:30:54.282Z,103585.16
2023-02-12T17:33:21.232Z,103588.75
2023-02-12T17:35:47.937Z,103589.69
2023-02-12T17:38:14.750Z,103583.69
2023-02-12T17:40:41.547Z,103585.44
2023-02-12T17:43:09.397Z,103590.63
2023-02-12T17:45:40.948Z,103593.31
2023-02-12T17:48:07.962Z,103591.63
2023-02-12T17:50:34.587Z,103589.16
2023-02-12T17:53:01.266Z,103594.31
2023-02-12T17:55:28.001Z,103593.50
2023-02-12T17:57:55.590Z,103593.59
2023-02-12T18:00:23.405Z,103606.56
2023-02-12T18:02:50.374Z,103607.38
2023-02-12T18:05:17.286Z,103604.88
2023-02-12T18:07:44.319Z,103608.31
2023-02-12T18:10:11.752Z,103610.91
2023-02-12T18:12:38.565Z,103613.66
2023-02-12T18:15:08.008Z,103609.44
2023-02-12T18:17:36.310Z,103617.09
2023-02-12T18:20:03.848Z,103616.34
2023-02-12T18:22:32.395Z,103614.69
2023-02-12T18:24:59.034Z,103611.34
2023-02-12T18:27:26.379Z,103616.72
2023-02-12T18:29:53.189Z,103620.34
2023-02-12T18:32:19.829Z,103613.47
2023-02-12T18:34:46.620Z,103611.78
2023-02-12T18:37:13.935Z,103608.41
2023-02-12T18:39:41.042Z,103605.88
2023-02-12T18:42:09.338Z,103607.72
2023-02-12T18:44:36.100Z,103604.28
2023-02-12T18:47:03.023Z,103602.63
2023-02-12T18:49:29.920Z,103600.97
2023-02-12T18:51:56.949Z,103604.38
2023-02-12T18:54:23.697Z,103598.47
2023-02-12T18:56:52.498Z,103605.41
2023-02-12T18:59:20.362Z,103604.56
2023-02-12T19:01:48.137Z,103604.56
2023-02-12T19:04:16.305Z,103610.59
2023-02-12T19:06:54.242Z,103599.38
2023-02-12T19:09:24.358Z,103600.22
2023-02-12T19:11:54.968Z,103600.31
2023-02-12T19:14:23.942Z,103596.06
2023-02-12T19:16:51.601Z,103604.75
2023-02-12T19:19:22.319Z,103603.91
2023-02-12T19:21:49.452Z,103605.69
2023-02-12T19:24:16.924Z,103608.25
2023-02-12T19:26:44.557Z,103611.81
2023-02-12T19:29:12.552Z,103605.78
2023-02-12T19:31:43.781Z,103611.88
2023-02-12T19:34:18.011Z,103606.69
2023-02-12T19:36:45.737Z,103603.25
2023-02-12T19:39:18.999Z,103603.25
2023-02-12T19:41:47.046Z,103604.25
2023-02-12T19:44:19.619Z,103603.47
2023-02-12T19:46:48.259Z,103594.94
2023-02-12T19:49:18.125Z,103601.03
2023-02-12T19:51:45.176Z,103607.97
2023-02-12T19:54:13.628Z,103600.28
2023-02-12T19:56:40.563Z,103594.28
2023-02-12T19:59:07.547Z,103594.28
2023-02-12T20:01:35.011Z,103596.03
2023-02-12T20:04:03.366Z,103588.25
2023-02-12T20:06:34.552Z,103591.78
2023-02-12T20:09:01.991Z,103580.47
2023-02-12T20:11:31.487Z,103583.16
2023-02-12T20:13:58.609Z,103580.69
2023-02-12T20:16:31.284Z,103585.13
2023-02-12T20:19:01.640Z,103584.19
2023-02-12T20:21:28.718Z,103585.91
2023-02-12T20:23:56.460Z,103584.28
2023-02-12T20:26:23.861Z,103585.19
2023-02-12T20:28:50.803Z,103583.59
2023-02-12T20:31:23.962Z,103578.41
2023-02-12T20:34:01.864Z,103581.28
2023-02-12T20:36:37.330Z,103574.78
2023-02-12T20:39:06.513Z,103584.56
2023-02-12T20:41:36.994Z,103584.56
2023-02-12T20:44:05.756Z,103581.16
2023-02-12T20:46:32.739Z,103587.25
2023-02-12T20:48:59.507Z,103583.81
2023-02-12T20:51:27.724Z,103582.19
2023-02-12T20:53:55.573Z,103594.44
2023-02-12T20:56:31.611Z,103584.34
2023-02-12T20:58:59.050Z,103584.56
2023-02-12T21:01:37.746Z,103586.28
2023-02-12T21:04:13.359Z,103588.03
2023-02-12T21:06:41.699Z,103587.13
2023-02-12T21:09:10.412Z,103587.22
2023-02-12T21:11:38.181Z,103589.16
2023-02-12T21:14:21.442Z,103587.56
2023-02-12T21:16:49.866Z,103585.97
2023-02-12T21:19:17.944Z,103586.06
2023-02-12T21:21:45.584Z,103588.72
2023-02-12T21:24:18.694Z,103584.50
2023-02-12T21:26:45.653Z,103582.75
2023-02-12T21:29:12.286Z,103577.56
2023-02-12T21:31:41.897Z,103578.47
2023-02-12T21:34:12.851Z,103580.16
2023-02-12T21:36:41.569Z,103581.06
2023-02-12T21:39:12.749Z,103576.88
2023-02-12T21:41:41.844Z,103577.72
2023-02-12T21:44:13.576Z,103579.56
2023-02-12T21:46:40.267Z,103581.31
2023-02-12T21:49:07.718Z,103579.63
2023-02-12T21:51:43.163Z,103582.31
2023-02-12T21:54:15.673Z,103585.00
2023-02-12T21:56:44.024Z,103585.91
2023-02-12T21:59:10.895Z,103584.25
2023-02-12T22:01:41.582Z,103581.94
2023-02-12T22:04:08.567Z,103582.09
2023-02-12T22:06:40.536Z,103578.50
2023-02-12T22:09:08.818Z,103575.91
2023-02-12T22:11:36.675Z,103571.56
2023-02-12T22:14:04.539Z,103576.75
2023-02-12T22:16:31.638Z,103569.00
2023-02-12T22:19:00.539Z,103578.41
2023-02-12T22:21:30.299Z,103581.84
2023-02-12T22:23:57.659Z,103567.41
2023-02-12T22:26:27.395Z,103573.50
2023-02-12T22:28:59.609Z,103570.16
2023-02-12T22:31:31.745Z,103569.22
2023-02-12T22:34:02.823Z,103564.88
2023-02-12T22:36:30.521Z,103558.81
2023-02-12T22:38:59.563Z,103568.22
2023-02-12T22:41:28.003Z,103573.22
2023-02-12T22:43:55.119Z,103567.06
2023-02-12T22:46:23.452Z,103562.88
2023-02-12T22:48:50.097Z,103558.53
2023-02-12T22:51:28.968Z,103565.47
2023-02-12T22:53:56.578Z,103566.41
2023-02-12T22:56:23.957Z,103568.91
2023-02-12T22:58:55.848Z,103561.97
2023-02-12T23:01:23.139Z,103565.31
2023-02-12T23:03:50.520Z,103568.78
2023-02-12T23:06:19.681Z,103567.31
2023-02-12T23:08:50.808Z,103563.81
2023-02-12T23:11:18.478Z,103556.97
2023-02-12T23:13:45.346Z,103553.47
2023-02-12T23:16:12.440Z,103553.38
2023-02-12T23:18:39.045Z,103559.44
2023-02-12T23:21:06.051Z,103553.47
2023-02-12T23:23:32.729Z,103552.69
2023-02-12T23:25:59.490Z,103561.38
2023-02-12T23:28:26.519Z,103558.06
2023-02-12T23:30:53.662Z,103552.03
2023-02-12T23:33:20.536Z,103556.47
2023-02-12T23:35:48.487Z,103549.72
2023-02-12T23:38:16.151Z,103546.19
2023-02-12T23:40:43.903Z,103545.28
2023-02-12T23:43:10.884Z,103541.78
2023-02-12T23:45:37.674Z,103544.38
2023-02-12T23:48:04.655Z,103546.03
2023-02-12T23:50:31.739Z,103540.09
2023-02-12T23:52:59.227Z,103532.44
2023-02-12T23:55:25.961Z,103530.00
2023-02-12T23:57:52.668Z,103527.44
